sensor_id;sensor_type;location;lat;lon;timestamp;pressure;altitude;pressure_sealevel;temperature;humidity
74433;BME280;62865;53.146;23.172;2022-08-21T00:03:28;1020.9;;;21.1;70.5
74433;BME280;62865;53.146;23.172;2022-08-21T00:08:08;1020.8;;;21;70.7
74433;BME280;62865;53.146;23.172;2022-08-21T00:13:16;1020.8;;;20.9;71
74433;BME280;62865;53.146;23.172;2022-08-21T00:18:05;1020.9;;;20.8;71.5
74433;BME280;62865;53.146;23.172;2022-08-21T00:22:56;1020.9;;;20.6;72.2
74433;BME280;62865;53.146;23.172;2022-08-21T00:28:24;1021;;;20.4;72.8
74433;BME280;62865;53.146;23.172;2022-08-21T00:33:02;1021;;;20.3;73.4
74433;BME280;62865;53.146;23.172;2022-08-21T00:38:30;1021;;;20.2;73.9
74433;BME280;62865;53.146;23.172;2022-08-21T00:43:31;1021;;;20.1;74.1
74433;BME280;62865;53.146;23.172;2022-08-21T00:47:56;1021;;;20.1;74.3
74433;BME280;62865;53.146;23.172;2022-08-21T00:53:28;1021;;;20;74.5
74433;BME280;62865;53.146;23.172;2022-08-21T00:58:30;1020.9;;;19.9;74.8
74433;BME280;62865;53.146;23.172;2022-08-21T01:03:28;1021;;;19.9;75.1
74433;BME280;62865;53.146;23.172;2022-08-21T01:07:56;1021;;;19.8;75.3
74433;BME280;62865;53.146;23.172;2022-08-21T01:12:56;1020.9;;;19.8;75.4
74433;BME280;62865;53.146;23.172;2022-08-21T01:18:28;1021;;;19.7;75.8
74433;BME280;62865;53.146;23.172;2022-08-21T01:23:22;1020.9;;;19.7;76
74433;BME280;62865;53.146;23.172;2022-08-21T01:28:14;1020.9;;;19.7;76.1
74433;BME280;62865;53.146;23.172;2022-08-21T01:33:22;1020.8;;;19.7;76.1
74433;BME280;62865;53.146;23.172;2022-08-21T01:38:24;1020.8;;;19.6;76.2
74433;BME280;62865;53.146;23.172;2022-08-21T01:43:16;1020.8;;;19.6;76.4
74433;BME280;62865;53.146;23.172;2022-08-21T01:48:24;1020.8;;;19.5;76.7
74433;BME280;62865;53.146;23.172;2022-08-21T01:53:34;1020.8;;;19.5;76.7
74433;BME280;62865;53.146;23.172;2022-08-21T01:58:04;1020.8;;;19.5;76.8
74433;BME280;62865;53.146;23.172;2022-08-21T02:03:06;1020.7;;;19.4;77
74433;BME280;62865;53.146;23.172;2022-08-21T02:08:32;1020.7;;;19.4;77.3
74433;BME280;62865;53.146;23.172;2022-08-21T02:13:20;1020.7;;;19.3;77.4
74433;BME280;62865;53.146;23.172;2022-08-21T02:18:34;1020.7;;;19.3;77.5
74433;BME280;62865;53.146;23.172;2022-08-21T02:23:10;1020.7;;;19.2;77.8
74433;BME280;62865;53.146;23.172;2022-08-21T02:28:22;1020.7;;;19.2;77.9
74433;BME280;62865;53.146;23.172;2022-08-21T02:33:32;1020.7;;;19.2;77.9
74433;BME280;62865;53.146;23.172;2022-08-21T02:38:18;1020.7;;;19.2;77.9
74433;BME280;62865;53.146;23.172;2022-08-21T02:43:25;1020.7;;;19.2;78
74433;BME280;62865;53.146;23.172;2022-08-21T02:47:57;1020.6;;;19.2;78
74433;BME280;62865;53.146;23.172;2022-08-21T02:53:09;1020.7;;;19.2;77.9
74433;BME280;62865;53.146;23.172;2022-08-21T02:57:56;1020.7;;;19.2;78
74433;BME280;62865;53.146;23.172;2022-08-21T03:03:14;1020.6;;;19.1;78.1
74433;BME280;62865;53.146;23.172;2022-08-21T03:08:32;1020.6;;;19.1;78.3
74433;BME280;62865;53.146;23.172;2022-08-21T03:13:26;1020.6;;;19;78.4
74433;BME280;62865;53.146;23.172;2022-08-21T03:18:16;1020.6;;;19;78.4
74433;BME280;62865;53.146;23.172;2022-08-21T03:23:18;1020.5;;;19;78.4
74433;BME280;62865;53.146;23.172;2022-08-21T03:28:26;1020.5;;;19;78.3
74433;BME280;62865;53.146;23.172;2022-08-21T03:33:32;1020.5;;;19;78.4
74433;BME280;62865;53.146;23.172;2022-08-21T03:38:12;1020.5;;;19;78.3
74433;BME280;62865;53.146;23.172;2022-08-21T03:43:08;1020.5;;;19;78.3
74433;BME280;62865;53.146;23.172;2022-08-21T03:47:58;1020.6;;;19;78.2
74433;BME280;62865;53.146;23.172;2022-08-21T03:53:25;1020.6;;;19.1;78.2
74433;BME280;62865;53.146;23.172;2022-08-21T03:58:02;1020.7;;;19.1;78.1
74433;BME280;62865;53.146;23.172;2022-08-21T04:03:20;1020.7;;;19.1;77.9
74433;BME280;62865;53.146;23.172;2022-08-21T04:08:26;1020.7;;;19.2;77.6
74433;BME280;62865;53.146;23.172;2022-08-21T04:13:26;1020.8;;;19.3;77.3
74433;BME280;62865;53.146;23.172;2022-08-21T04:18:22;1020.8;;;19.3;77.1
74433;BME280;62865;53.146;23.172;2022-08-21T04:23:34;1020.8;;;19.4;76.9
74433;BME280;62865;53.146;23.172;2022-08-21T04:27:57;1020.8;;;19.5;76.7
74433;BME280;62865;53.146;23.172;2022-08-21T04:32:56;1020.7;;;19.5;76.4
74433;BME280;62865;53.146;23.172;2022-08-21T04:38:08;1020.7;;;19.6;76.2
74433;BME280;62865;53.146;23.172;2022-08-21T04:43:32;1020.7;;;19.7;75.9
74433;BME280;62865;53.146;23.172;2022-08-21T04:48:32;1020.6;;;19.9;75.2
74433;BME280;62865;53.146;23.172;2022-08-21T04:53:26;1020.7;;;20.1;74.7
74433;BME280;62865;53.146;23.172;2022-08-21T04:58:35;1020.7;;;20.1;74.5
74433;BME280;62865;53.146;23.172;2022-08-21T05:03:22;1020.7;;;20.2;74.2
74433;BME280;62865;53.146;23.172;2022-08-21T05:08:17;1020.7;;;20.3;73.8
74433;BME280;62865;53.146;23.172;2022-08-21T05:13:18;1020.7;;;20.4;73.4
74433;BME280;62865;53.146;23.172;2022-08-21T05:18:08;1020.7;;;20.4;73.2
74433;BME280;62865;53.146;23.172;2022-08-21T05:23:18;1020.7;;;20.5;72.9
74433;BME280;62865;53.146;23.172;2022-08-21T05:28:04;1020.7;;;20.7;72.3
74433;BME280;62865;53.146;23.172;2022-08-21T05:33:14;1020.7;;;20.9;71.8
74433;BME280;62865;53.146;23.172;2022-08-21T05:38:34;1020.7;;;21;71.3
74433;BME280;62865;53.146;23.172;2022-08-21T05:43:26;1020.7;;;21.2;70.7
74433;BME280;62865;53.146;23.172;2022-08-21T05:48:17;1020.6;;;21.5;70.1
74433;BME280;62865;53.146;23.172;2022-08-21T05:53:24;1020.7;;;21.6;69.4
74433;BME280;62865;53.146;23.172;2022-08-21T05:58:26;1020.7;;;21.7;69
74433;BME280;62865;53.146;23.172;2022-08-21T06:03:34;1020.7;;;21.9;68.4
74433;BME280;62865;53.146;23.172;2022-08-21T06:07:56;1020.7;;;22;67.9
74433;BME280;62865;53.146;23.172;2022-08-21T06:12:56;1020.7;;;22;67.7
74433;BME280;62865;53.146;23.172;2022-08-21T06:17:56;1020.7;;;22.2;67.2
74433;BME280;62865;53.146;23.172;2022-08-21T06:23:24;1020.6;;;22.3;66.9
74433;BME280;62865;53.146;23.172;2022-08-21T06:28:16;1020.6;;;22.4;66.1
74433;BME280;62865;53.146;23.172;2022-08-21T06:33:22;1020.6;;;22.6;65.3
74433;BME280;62865;53.146;23.172;2022-08-21T06:38:24;1020.5;;;22.7;64.5
74433;BME280;62865;53.146;23.172;2022-08-21T06:43:26;1020.4;;;22.9;64
74433;BME280;62865;53.146;23.172;2022-08-21T06:48:22;1020.4;;;23;63.5
74433;BME280;62865;53.146;23.172;2022-08-21T06:53:22;1020.3;;;23.1;62.9
74433;BME280;62865;53.146;23.172;2022-08-21T06:58:34;1020.2;;;23.3;62.4
74433;BME280;62865;53.146;23.172;2022-08-21T07:03:15;1020.2;;;23.3;62.2
74433;BME280;62865;53.146;23.172;2022-08-21T07:08:08;1020.2;;;23.4;62.1
74433;BME280;62865;53.146;23.172;2022-08-21T07:13:32;1020.2;;;23.5;61.2
74433;BME280;62865;53.146;23.172;2022-08-21T07:18:24;1020.1;;;23.5;60.9
74433;BME280;62865;53.146;23.172;2022-08-21T07:23:37;1020.1;;;23.5;60.1
74433;BME280;62865;53.146;23.172;2022-08-21T07:28:18;1020.1;;;23.5;59.7
74433;BME280;62865;53.146;23.172;2022-08-21T07:33:22;1020.1;;;23.6;59.6
74433;BME280;62865;53.146;23.172;2022-08-21T07:38:34;1020;;;23.8;59
74433;BME280;62865;53.146;23.172;2022-08-21T07:43:04;1020.1;;;24.1;58.1
74433;BME280;62865;53.146;23.172;2022-08-21T07:48:08;1020.1;;;24.3;57.5
74433;BME280;62865;53.146;23.172;2022-08-21T07:53:10;1020.1;;;24.5;56.8
74433;BME280;62865;53.146;23.172;2022-08-21T07:58:08;1020.2;;;24.8;56
74433;BME280;62865;53.146;23.172;2022-08-21T08:03:22;1020.1;;;25.1;55.5
74433;BME280;62865;53.146;23.172;2022-08-21T08:08:16;1020.1;;;25.3;54.9
74433;BME280;62865;53.146;23.172;2022-08-21T08:13:37;1020.1;;;25.5;54.5
74433;BME280;62865;53.146;23.172;2022-08-21T08:18:34;1020.1;;;25.5;54.5
74433;BME280;62865;53.146;23.172;2022-08-21T08:23:18;1020;;;25.4;54.7
74433;BME280;62865;53.146;23.172;2022-08-21T08:28:32;1020;;;25.5;54.4
74433;BME280;62865;53.146;23.172;2022-08-21T08:33:32;1020;;;25.8;53.8
74433;BME280;62865;53.146;23.172;2022-08-21T08:38:34;1020;;;25.9;53
74433;BME280;62865;53.146;23.172;2022-08-21T08:43:08;1019.9;;;25.9;52.9
74433;BME280;62865;53.146;23.172;2022-08-21T08:48:09;1019.9;;;26.2;52.2
74433;BME280;62865;53.146;23.172;2022-08-21T08:53:38;1019.9;;;26.4;51.7
74433;BME280;62865;53.146;23.172;2022-08-21T08:58:20;1019.9;;;26.2;52
74433;BME280;62865;53.146;23.172;2022-08-21T09:03:16;1019.9;;;26.3;51.3
74433;BME280;62865;53.146;23.172;2022-08-21T09:13:33;1019.9;;;26.3;51
74433;BME280;62865;53.146;23.172;2022-08-21T09:18:23;1020;;;26.2;51.5
74433;BME280;62865;53.146;23.172;2022-08-21T09:23:23;1020;;;26.1;51.5
74433;BME280;62865;53.146;23.172;2022-08-21T09:28:34;1019.9;;;26.1;51.7
74433;BME280;62865;53.146;23.172;2022-08-21T09:33:22;1019.8;;;26;51.4
74433;BME280;62865;53.146;23.172;2022-08-21T09:38:08;1019.9;;;25.8;51.6
74433;BME280;62865;53.146;23.172;2022-08-21T09:43:35;1019.9;;;25.8;51.9
74433;BME280;62865;53.146;23.172;2022-08-21T09:48:24;1019.9;;;26;51.9
74433;BME280;62865;53.146;23.172;2022-08-21T09:53:32;1019.8;;;26;52.1
74433;BME280;62865;53.146;23.172;2022-08-21T09:58:33;1019.8;;;26.1;52.2
74433;BME280;62865;53.146;23.172;2022-08-21T10:03:34;1019.7;;;26.2;52.1
74433;BME280;62865;53.146;23.172;2022-08-21T10:08:35;1019.6;;;26.4;51.7
74433;BME280;62865;53.146;23.172;2022-08-21T10:13:21;1019.6;;;26.8;51.1
74433;BME280;62865;53.146;23.172;2022-08-21T10:18:20;1019.6;;;27;50.6
74433;BME280;62865;53.146;23.172;2022-08-21T10:24:16;1019.5;;;27.1;50.3
74433;BME280;62865;53.146;23.172;2022-08-21T10:28:21;1019.5;;;27.1;50.2
74433;BME280;62865;53.146;23.172;2022-08-21T10:33:13;1019.5;;;27.3;49.8
74433;BME280;62865;53.146;23.172;2022-08-21T10:38:42;1019.5;;;27.3;49.9
74433;BME280;62865;53.146;23.172;2022-08-21T10:44:42;1019.5;;;27.2;50
74433;BME280;62865;53.146;23.172;2022-08-21T10:48:36;1019.6;;;27.4;49.5
74433;BME280;62865;53.146;23.172;2022-08-21T10:53:26;1019.6;;;27.4;49.4
74433;BME280;62865;53.146;23.172;2022-08-21T10:58:30;1019.6;;;27.3;49.6
74433;BME280;62865;53.146;23.172;2022-08-21T11:03:33;1019.7;;;26.9;50.4
74433;BME280;62865;53.146;23.172;2022-08-21T11:08:35;1019.7;;;26.6;51.3
74433;BME280;62865;53.146;23.172;2022-08-21T11:13:13;1019.6;;;26.5;51.7
74433;BME280;62865;53.146;23.172;2022-08-21T11:18:15;1019.6;;;26.5;51.8
74433;BME280;62865;53.146;23.172;2022-08-21T11:22:58;1019.7;;;26.6;51.9
74433;BME280;62865;53.146;23.172;2022-08-21T11:28:22;1019.7;;;27;51.2
74433;BME280;62865;53.146;23.172;2022-08-21T11:33:47;1019.7;;;27.4;50.4
74433;BME280;62865;53.146;23.172;2022-08-21T11:38:57;1019.6;;;27.4;50.1
74433;BME280;62865;53.146;23.172;2022-08-21T11:43:19;1019.6;;;27.3;50.1
74433;BME280;62865;53.146;23.172;2022-08-21T11:48:33;1019.6;;;27.6;49.9
74433;BME280;62865;53.146;23.172;2022-08-21T11:53:28;1019.5;;;27.9;49.1
74433;BME280;62865;53.146;23.172;2022-08-21T11:58:21;1019.5;;;28.4;48.1
74433;BME280;62865;53.146;23.172;2022-08-21T12:03:07;1019.5;;;28.4;47.7
74433;BME280;62865;53.146;23.172;2022-08-21T12:08:27;1019.5;;;28.3;47.5
74433;BME280;62865;53.146;23.172;2022-08-21T12:13:10;1019.5;;;28.5;47.2
74433;BME280;62865;53.146;23.172;2022-08-21T12:18:30;1019.5;;;28.6;47
74433;BME280;62865;53.146;23.172;2022-08-21T12:23:33;1019.5;;;28.5;47
74433;BME280;62865;53.146;23.172;2022-08-21T12:28:21;1019.4;;;28.3;47.5
74433;BME280;62865;53.146;23.172;2022-08-21T12:33:37;1019.4;;;28.1;47.6
74433;BME280;62865;53.146;23.172;2022-08-21T12:37:57;1019.3;;;28.3;47.5
74433;BME280;62865;53.146;23.172;2022-08-21T12:43:19;1019.3;;;28.2;47.1
74433;BME280;62865;53.146;23.172;2022-08-21T12:48:49;1019.3;;;28;47.1
74433;BME280;62865;53.146;23.172;2022-08-21T12:53:12;1019.2;;;28.1;47
74433;BME280;62865;53.146;23.172;2022-08-21T12:58:19;1019.2;;;28.2;46.7
74433;BME280;62865;53.146;23.172;2022-08-21T13:02:56;1019.2;;;28.4;46.6
74433;BME280;62865;53.146;23.172;2022-08-21T13:08:11;1019.2;;;28.7;45.9
74433;BME280;62865;53.146;23.172;2022-08-21T13:13:34;1019.2;;;28.8;45.2
74433;BME280;62865;53.146;23.172;2022-08-21T13:18:28;1019.1;;;29;44.6
74433;BME280;62865;53.146;23.172;2022-08-21T13:23:34;1019.1;;;29.2;43.4
74433;BME280;62865;53.146;23.172;2022-08-21T13:28:09;1019.1;;;28.9;43.8
74433;BME280;62865;53.146;23.172;2022-08-21T13:33:22;1019.1;;;28.9;43.9
74433;BME280;62865;53.146;23.172;2022-08-21T13:38:34;1019.1;;;28.8;44.1
74433;BME280;62865;53.146;23.172;2022-08-21T13:42:56;1019.1;;;28.6;44.2
74433;BME280;62865;53.146;23.172;2022-08-21T13:48:08;1019.1;;;28.4;45.2
74433;BME280;62865;53.146;23.172;2022-08-21T13:53:19;1019.1;;;27.8;47.2
74433;BME280;62865;53.146;23.172;2022-08-21T13:58:25;1019;;;27.9;47.5
74433;BME280;62865;53.146;23.172;2022-08-21T14:03:26;1019;;;28;47
74433;BME280;62865;53.146;23.172;2022-08-21T14:08:27;1019;;;28.4;46.1
74433;BME280;62865;53.146;23.172;2022-08-21T14:13:57;1018.9;;;28.4;45.9
74433;BME280;62865;53.146;23.172;2022-08-21T14:18:26;1018.9;;;28.8;45.8
74433;BME280;62865;53.146;23.172;2022-08-21T14:23:24;1018.9;;;30;43.2
74433;BME280;62865;53.146;23.172;2022-08-21T14:28:34;1018.9;;;30.3;42.2
74433;BME280;62865;53.146;23.172;2022-08-21T14:32:56;1018.9;;;30.2;42.7
74433;BME280;62865;53.146;23.172;2022-08-21T14:38:14;1018.9;;;29.4;43.7
74433;BME280;62865;53.146;23.172;2022-08-21T14:42:56;1019;;;28.2;46
74433;BME280;62865;53.146;23.172;2022-08-21T14:48:34;1018.9;;;27.7;47.7
74433;BME280;62865;53.146;23.172;2022-08-21T14:53:36;1018.9;;;27.2;49
74433;BME280;62865;53.146;23.172;2022-08-21T14:58:18;1018.9;;;26.9;50
74433;BME280;62865;53.146;23.172;2022-08-21T15:03:35;1018.8;;;27.3;49.3
74433;BME280;62865;53.146;23.172;2022-08-21T15:08:24;1018.8;;;28.1;47.5
74433;BME280;62865;53.146;23.172;2022-08-21T15:13:19;1018.7;;;28.8;46.2
74433;BME280;62865;53.146;23.172;2022-08-21T15:18:10;1018.7;;;29;45.8
74433;BME280;62865;53.146;23.172;2022-08-21T15:23:18;1018.7;;;28.6;46.9
74433;BME280;62865;53.146;23.172;2022-08-21T15:28:20;1018.8;;;28.1;47.6
74433;BME280;62865;53.146;23.172;2022-08-21T15:32:56;1018.8;;;27.8;48.1
74433;BME280;62865;53.146;23.172;2022-08-21T15:38:04;1018.8;;;27.5;48.7
74433;BME280;62865;53.146;23.172;2022-08-21T15:42:58;1018.8;;;27.5;48.1
74433;BME280;62865;53.146;23.172;2022-08-21T15:48:38;1018.8;;;27.6;48
74433;BME280;62865;53.146;23.172;2022-08-21T15:53:30;1018.8;;;27.7;47.9
74433;BME280;62865;53.146;23.172;2022-08-21T15:58:18;1018.8;;;27.6;47.8
74433;BME280;62865;53.146;23.172;2022-08-21T16:03:38;1018.8;;;27.2;48.7
74433;BME280;62865;53.146;23.172;2022-08-21T16:08:38;1018.8;;;27;49.1
74433;BME280;62865;53.146;23.172;2022-08-21T16:13:41;1018.8;;;26.7;49.8
74433;BME280;62865;53.146;23.172;2022-08-21T16:18:10;1018.9;;;26.5;50.5
74433;BME280;62865;53.146;23.172;2022-08-21T16:23:10;1018.9;;;26.3;51.2
74433;BME280;62865;53.146;23.172;2022-08-21T16:28:37;1018.9;;;26.1;51.7
74433;BME280;62865;53.146;23.172;2022-08-21T16:33:22;1019;;;26;52.2
74433;BME280;62865;53.146;23.172;2022-08-21T16:38:14;1019;;;25.9;52.6
74433;BME280;62865;53.146;23.172;2022-08-21T16:43:27;1019;;;25.8;53
74433;BME280;62865;53.146;23.172;2022-08-21T16:48:21;1019;;;25.6;53.6
74433;BME280;62865;53.146;23.172;2022-08-21T16:53:18;1019;;;25.5;53.8
74433;BME280;62865;53.146;23.172;2022-08-21T16:58:26;1019;;;25.4;54.2
74433;BME280;62865;53.146;23.172;2022-08-21T17:03:35;1019;;;25.3;54.6
74433;BME280;62865;53.146;23.172;2022-08-21T17:07:56;1019;;;25.1;55
74433;BME280;62865;53.146;23.172;2022-08-21T17:13:10;1019.1;;;25;55.6
74433;BME280;62865;53.146;23.172;2022-08-21T17:18:21;1019.1;;;24.9;56.1
74433;BME280;62865;53.146;23.172;2022-08-21T17:23:24;1019.1;;;24.8;56.5
74433;BME280;62865;53.146;23.172;2022-08-21T17:28:36;1019.1;;;24.7;57
74433;BME280;62865;53.146;23.172;2022-08-21T17:33:23;1019.2;;;24.6;57.5
74433;BME280;62865;53.146;23.172;2022-08-21T17:38:26;1019.3;;;24.5;57.8
74433;BME280;62865;53.146;23.172;2022-08-21T17:43:34;1019.2;;;24.3;58.1
74433;BME280;62865;53.146;23.172;2022-08-21T17:48:10;1019.3;;;24.2;58.6
74433;BME280;62865;53.146;23.172;2022-08-21T17:53:16;1019.3;;;24.1;59.1
74433;BME280;62865;53.146;23.172;2022-08-21T17:57:56;1019.3;;;24;59.4
74433;BME280;62865;53.146;23.172;2022-08-21T18:03:09;1019.4;;;23.8;59.8
74433;BME280;62865;53.146;23.172;2022-08-21T18:08:16;1019.4;;;23.8;60.2
74433;BME280;62865;53.146;23.172;2022-08-21T18:13:22;1019.5;;;23.8;60.2
74433;BME280;62865;53.146;23.172;2022-08-21T18:18:38;1019.5;;;23.7;60.4
74433;BME280;62865;53.146;23.172;2022-08-21T18:23:40;1019.5;;;23.7;60.7
74433;BME280;62865;53.146;23.172;2022-08-21T18:28:18;1019.6;;;23.6;60.7
74433;BME280;62865;53.146;23.172;2022-08-21T18:33:37;1019.6;;;23.6;61
74433;BME280;62865;53.146;23.172;2022-08-21T18:38:38;1019.5;;;23.6;61.2
74433;BME280;62865;53.146;23.172;2022-08-21T18:43:38;1019.5;;;23.6;61.5
74433;BME280;62865;53.146;23.172;2022-08-21T18:48:09;1019.5;;;23.6;61.7
74433;BME280;62865;53.146;23.172;2022-08-21T18:52:56;1019.5;;;23.5;62
74433;BME280;62865;53.146;23.172;2022-08-21T18:58:36;1019.6;;;23.5;62
74433;BME280;62865;53.146;23.172;2022-08-21T19:03:26;1019.5;;;23.5;62.1
74433;BME280;62865;53.146;23.172;2022-08-21T19:08:17;1019.5;;;23.5;62.1
74433;BME280;62865;53.146;23.172;2022-08-21T19:13:28;1019.5;;;23.6;62
74433;BME280;62865;53.146;23.172;2022-08-21T19:18:28;1019.5;;;23.6;62.1
74433;BME280;62865;53.146;23.172;2022-08-21T19:23:18;1019.5;;;23.6;62.3
74433;BME280;62865;53.146;23.172;2022-08-21T19:28:28;1019.6;;;23.6;62.4
74433;BME280;62865;53.146;23.172;2022-08-21T19:33:35;1019.6;;;23.6;62.7
74433;BME280;62865;53.146;23.172;2022-08-21T19:38:10;1019.5;;;23.5;62.9
74433;BME280;62865;53.146;23.172;2022-08-21T19:43:08;1019.5;;;23.5;63.3
74433;BME280;62865;53.146;23.172;2022-08-21T19:48:08;1019.5;;;23.4;63.7
74433;BME280;62865;53.146;23.172;2022-08-21T19:53:36;1019.5;;;23.3;64.3
74433;BME280;62865;53.146;23.172;2022-08-21T19:58:34;1019.5;;;23.1;64.7
74433;BME280;62865;53.146;23.172;2022-08-21T20:03:08;1019.5;;;23;65
74433;BME280;62865;53.146;23.172;2022-08-21T20:08:36;1019.5;;;22.9;65.4
74433;BME280;62865;53.146;23.172;2022-08-21T20:13:27;1019.6;;;22.9;65.8
74433;BME280;62865;53.146;23.172;2022-08-21T20:18:18;1019.6;;;22.8;66.2
74433;BME280;62865;53.146;23.172;2022-08-21T20:23:18;1019.6;;;22.7;66.6
74433;BME280;62865;53.146;23.172;2022-08-21T20:28:08;1019.6;;;22.6;67
74433;BME280;62865;53.146;23.172;2022-08-21T20:33:14;1019.6;;;22.4;67.7
74433;BME280;62865;53.146;23.172;2022-08-21T20:38:10;1019.6;;;22.3;68.2
74433;BME280;62865;53.146;23.172;2022-08-21T20:43:25;1019.5;;;22.1;68.8
74433;BME280;62865;53.146;23.172;2022-08-21T20:48:37;1019.5;;;22;69.5
74433;BME280;62865;53.146;23.172;2022-08-21T20:53:39;1019.5;;;21.9;69.9
74433;BME280;62865;53.146;23.172;2022-08-21T20:58:30;1019.5;;;21.9;70.2
74433;BME280;62865;53.146;23.172;2022-08-21T21:03:08;1019.6;;;21.8;70.6
74433;BME280;62865;53.146;23.172;2022-08-21T21:08:30;1019.6;;;21.8;70.8
74433;BME280;62865;53.146;23.172;2022-08-21T21:13:47;1019.6;;;21.8;70.9
74433;BME280;62865;53.146;23.172;2022-08-21T21:18:10;1019.6;;;21.7;71.1
74433;BME280;62865;53.146;23.172;2022-08-21T21:22:59;1019.6;;;21.7;71.3
74433;BME280;62865;53.146;23.172;2022-08-21T21:28:29;1019.5;;;21.7;71.5
74433;BME280;62865;53.146;23.172;2022-08-21T21:33:22;1019.6;;;21.7;71.6
74433;BME280;62865;53.146;23.172;2022-08-21T21:38:17;1019.5;;;21.7;71.5
74433;BME280;62865;53.146;23.172;2022-08-21T21:43:32;1019.5;;;21.7;71.6
74433;BME280;62865;53.146;23.172;2022-08-21T21:48:48;1019.5;;;21.8;71.5
74433;BME280;62865;53.146;23.172;2022-08-21T22:03:47;1019.4;;;21.7;71.8
74433;BME280;62865;53.146;23.172;2022-08-21T22:08:13;1019.4;;;21.6;72
74433;BME280;62865;53.146;23.172;2022-08-21T22:14:10;1019.4;;;21.5;72.2
74433;BME280;62865;53.146;23.172;2022-08-21T22:17:57;1019.4;;;21.5;72.5
74433;BME280;62865;53.146;23.172;2022-08-21T22:23:37;1019.5;;;21.4;72.8
74433;BME280;62865;53.146;23.172;2022-08-21T22:28:35;1019.6;;;21.3;73.2
74433;BME280;62865;53.146;23.172;2022-08-21T22:33:23;1019.6;;;21.2;73.4
74433;BME280;62865;53.146;23.172;2022-08-21T22:38:33;1019.7;;;21.1;73.9
74433;BME280;62865;53.146;23.172;2022-08-21T22:43:28;1019.7;;;21.1;74.1
74433;BME280;62865;53.146;23.172;2022-08-21T22:48:19;1019.7;;;21;74.3
74433;BME280;62865;53.146;23.172;2022-08-21T22:53:04;1019.7;;;20.9;74.7
74433;BME280;62865;53.146;23.172;2022-08-21T22:58:02;1019.7;;;20.8;74.8
74433;BME280;62865;53.146;23.172;2022-08-21T23:02:56;1019.8;;;20.8;75.1
74433;BME280;62865;53.146;23.172;2022-08-21T23:07:59;1019.7;;;20.7;75.3
74433;BME280;62865;53.146;23.172;2022-08-21T23:13:05;1019.7;;;20.6;75.6
74433;BME280;62865;53.146;23.172;2022-08-21T23:18:38;1019.6;;;20.6;75.9
74433;BME280;62865;53.146;23.172;2022-08-21T23:23:27;1019.6;;;20.5;76.2
74433;BME280;62865;53.146;23.172;2022-08-21T23:28:31;1019.6;;;20.5;76.3
74433;BME280;62865;53.146;23.172;2022-08-21T23:43:37;1019.6;;;20.4;76.7
74433;BME280;62865;53.146;23.172;2022-08-21T23:53:28;1019.7;;;20.3;76.9
74433;BME280;62865;53.146;23.172;2022-08-21T23:58:24;1019.7;;;20.3;77.1
